Time;durP1;ratioP1;P1;durP2;ratioP2;P2;SDS_P1;SDS_P2;PMS_P1;PMS_P2;Temp;Humidity;BMP_temperature;BMP_pressure;BME280_temperature;BME280_humidity;BME280_pressure;Samples;Min_cycle;Max_cycle;Signal;HPM_P1;HPM_P2
2023/03/01 00:01:11;;;;;;;24.48;15.95;;;-0.20;99.90;;;;;;4938813;28;94263;-29
2023/03/01 00:03:37;;;;;;;23.90;17.42;;;-0.20;99.90;;;;;;4938667;28;94216;-29
2023/03/01 00:06:04;;;;;;;25.63;18.77;;;-0.30;99.90;;;;;;4937921;28;94879;-30
2023/03/01 00:08:30;;;;;;;32.75;20.10;;;-0.30;99.90;;;;;;4939854;28;94842;-31
2023/03/01 00:11:01;;;;;;;32.72;20.30;;;-0.30;99.90;;;;;;4938609;28;93123;-29
2023/03/01 00:13:27;;;;;;;27.00;17.83;;;-0.20;99.90;;;;;;4938973;28;94621;-28
2023/03/01 00:15:53;;;;;;;25.33;18.35;;;-0.20;99.90;;;;;;4938520;28;93202;-27
2023/03/01 00:18:18;;;;;;;30.83;18.67;;;-0.20;99.90;;;;;;4939246;28;94810;-31
2023/03/01 00:20:51;;;;;;;28.95;18.77;;;-0.20;99.90;;;;;;4921253;28;93186;-32
2023/03/01 00:23:16;;;;;;;28.13;18.92;;;-0.20;99.90;;;;;;4938115;28;93908;-30
2023/03/01 00:25:42;;;;;;;28.23;17.60;;;-0.20;99.90;;;;;;4938383;28;95173;-30
2023/03/01 00:28:08;;;;;;;26.50;21.20;;;-0.20;99.90;;;;;;4938752;28;93545;-30
2023/03/01 00:30:34;;;;;;;29.35;19.75;;;-0.20;99.90;;;;;;4938770;28;92242;-29
2023/03/01 00:32:59;;;;;;;26.15;16.55;;;-0.20;99.90;;;;;;4938402;28;94503;-29
2023/03/01 00:35:25;;;;;;;28.45;18.25;;;-0.20;99.90;;;;;;4938649;28;94990;-28
2023/03/01 00:37:57;;;;;;;28.88;16.70;;;-0.30;99.90;;;;;;4938085;28;93601;-29
2023/03/01 00:40:23;;;;;;;22.63;15.90;;;-0.40;99.90;;;;;;4938877;28;92896;-29
2023/03/01 00:42:49;;;;;;;26.98;16.83;;;-0.40;99.90;;;;;;4937320;28;94849;-30
2023/03/01 00:45:15;;;;;;;25.70;17.83;;;-0.40;99.90;;;;;;4938640;28;94534;-31
2023/03/01 00:47:41;;;;;;;30.08;17.50;;;-0.40;99.90;;;;;;4937423;28;95711;-30
2023/03/01 00:50:07;;;;;;;26.40;16.17;;;-0.40;99.90;;;;;;4938002;28;92140;-30
2023/03/01 00:52:32;;;;;;;34.13;19.20;;;-0.40;99.90;;;;;;4937868;28;94420;-31
2023/03/01 00:54:58;;;;;;;24.80;17.15;;;-0.40;99.90;;;;;;4937835;28;94568;-30
2023/03/01 00:57:23;;;;;;;29.02;16.98;;;-0.40;99.90;;;;;;4938587;28;92910;-28
2023/03/01 00:59:49;;;;;;;29.30;17.80;;;-0.40;99.90;;;;;;4937236;28;93795;-27
2023/03/01 01:02:15;;;;;;;24.55;17.73;;;-0.40;99.90;;;;;;4937952;28;94824;-28
2023/03/01 01:04:41;;;;;;;25.60;18.27;;;-0.40;99.90;;;;;;4937682;28;94817;-29
2023/03/01 01:07:06;;;;;;;30.08;19.02;;;-0.40;99.90;;;;;;4937558;28;95038;-33
2023/03/01 01:09:32;;;;;;;19.52;15.48;;;-0.60;99.90;;;;;;4937818;28;94196;-31
2023/03/01 01:11:58;;;;;;;28.50;16.67;;;-0.60;99.90;;;;;;4936356;28;95241;-31
2023/03/01 01:14:23;;;;;;;21.85;16.55;;;-0.60;99.90;;;;;;4938324;28;95653;-27
2023/03/01 01:16:49;;;;;;;23.38;15.63;;;-0.70;99.90;;;;;;4937556;28;92592;-29
2023/03/01 01:19:15;;;;;;;19.92;15.68;;;-0.80;99.90;;;;;;4937716;28;93612;-31
2023/03/01 01:21:42;;;;;;;22.98;16.20;;;-0.80;99.90;;;;;;4936840;28;95145;-31
2023/03/01 01:24:08;;;;;;;25.77;17.03;;;-0.80;99.90;;;;;;4937325;28;93970;-31
2023/03/01 01:26:34;;;;;;;30.35;17.45;;;-0.80;99.90;;;;;;4938344;28;94453;-32
2023/03/01 01:29:01;;;;;;;20.50;16.67;;;-0.80;99.90;;;;;;4937527;28;92633;-31
2023/03/01 01:31:28;;;;;;;28.70;15.00;;;-0.70;99.90;;;;;;4937025;28;94866;-30
2023/03/01 01:33:54;;;;;;;28.15;17.33;;;-0.70;99.90;;;;;;4937541;28;94530;-31
2023/03/01 01:36:20;;;;;;;29.50;17.70;;;-0.70;99.90;;;;;;4937189;28;93717;-28
2023/03/01 01:38:45;;;;;;;20.90;16.63;;;-0.70;99.90;;;;;;4938109;28;94303;-29
2023/03/01 01:41:13;;;;;;;24.92;16.63;;;-0.80;99.90;;;;;;4937609;28;94663;-28
2023/03/01 01:43:45;;;;;;;23.13;14.90;;;-0.80;99.90;;;;;;4937212;28;94536;-29
2023/03/01 01:46:16;;;;;;;29.25;17.92;;;-0.90;99.90;;;;;;4937586;28;94734;-30
2023/03/01 01:48:46;;;;;;;24.70;15.88;;;-0.90;99.90;;;;;;4937998;28;94650;-28
2023/03/01 01:51:18;;;;;;;23.65;15.48;;;-1.00;99.90;;;;;;4936953;28;95355;-29
2023/03/01 01:53:46;;;;;;;27.98;17.33;;;-1.00;99.90;;;;;;4936878;28;94687;-30
2023/03/01 01:56:13;;;;;;;;;;;-1.10;99.90;;;;;;4919200;28;94065;-30
2023/03/01 01:58:41;;;;;;;24.25;15.32;;;-1.10;99.90;;;;;;4939540;28;94142;-27
2023/03/01 02:01:07;;;;;;;20.02;14.60;;;-1.10;99.90;;;;;;4936784;28;96053;-31
2023/03/01 02:03:37;;;;;;;26.27;17.13;;;-1.10;99.90;;;;;;4936941;28;95345;-27
2023/03/01 02:06:19;;;;;;;25.30;18.17;;;-1.10;99.90;;;;;;4936107;28;95103;-28
2023/03/01 02:08:47;;;;;;;24.95;16.58;;;-1.00;99.90;;;;;;4937339;28;92238;-30
2023/03/01 02:11:14;;;;;;;28.30;16.00;;;-0.90;99.90;;;;;;4936939;28;95196;-29
2023/03/01 02:13:40;;;;;;;24.05;16.92;;;-1.00;99.90;;;;;;4919233;28;94717;-30
2023/03/01 02:16:12;;;;;;;24.25;16.05;;;-1.00;99.90;;;;;;4936801;28;94432;-29
2023/03/01 02:18:40;;;;;;;29.88;18.35;;;-1.00;99.90;;;;;;4935947;28;93945;-29
2023/03/01 02:21:05;;;;;;;21.20;14.97;;;-1.00;99.90;;;;;;4936920;28;95403;-28
2023/03/01 02:23:32;;;;;;;30.63;16.33;;;-1.10;99.90;;;;;;4936240;28;94848;-27
2023/03/01 02:26:34;;;;;;;19.55;13.77;;;-1.30;99.90;;;;;;4936744;28;95270;-30
2023/03/01 02:29:00;;;;;;;24.67;14.90;;;-1.30;99.90;;;;;;4936375;28;93018;-31
2023/03/01 02:31:41;;;;;;;24.50;16.55;;;-1.40;99.90;;;;;;4936260;28;93889;-32
2023/03/01 02:34:16;;;;;;;23.08;15.43;;;-1.40;99.90;;;;;;4936540;28;94628;-29
2023/03/01 02:36:55;;;;;;;19.73;13.52;;;-1.40;99.90;;;;;;4919838;28;92620;-30
2023/03/01 02:39:26;;;;;;;23.77;15.50;;;-1.40;99.90;;;;;;4937167;28;93847;-30
2023/03/01 02:41:55;;;;;;;22.33;15.48;;;-1.50;99.90;;;;;;4936472;28;93540;-30
2023/03/01 02:44:21;;;;;;;24.60;15.38;;;-1.50;99.90;;;;;;4936612;28;94449;-32
2023/03/01 02:46:50;;;;;;;24.52;17.15;;;-1.40;99.90;;;;;;4936804;28;93677;-30
2023/03/01 02:49:26;;;;;;;21.35;15.18;;;-1.40;99.90;;;;;;4936641;28;92145;-29
2023/03/01 02:52:29;;;;;;;19.35;15.65;;;-1.40;99.90;;;;;;4935147;28;95373;-29
2023/03/01 02:55:00;;;;;;;20.50;15.07;;;-1.40;99.90;;;;;;4936591;28;95512;-30
2023/03/01 02:57:28;;;;;;;22.13;14.32;;;-1.50;99.90;;;;;;4936445;28;92837;-28
2023/03/01 02:59:56;;;;;;;21.92;14.02;;;-1.50;99.90;;;;;;4936987;28;94304;-28
2023/03/01 03:02:37;;;;;;;18.83;12.93;;;-1.50;99.90;;;;;;4936487;28;94587;-29
2023/03/01 03:05:08;;;;;;;17.33;13.70;;;-1.50;99.90;;;;;;4936689;28;94939;-29
2023/03/01 03:07:36;;;;;;;25.73;17.85;;;-1.50;99.90;;;;;;4937191;28;93977;-30
2023/03/01 03:10:03;;;;;;;23.05;16.98;;;-1.50;99.90;;;;;;4940076;28;91466;-31
2023/03/01 03:12:29;;;;;;;19.30;14.02;;;-1.50;99.90;;;;;;4939052;28;96577;-28
2023/03/01 03:14:54;;;;;;;21.13;15.07;;;-1.50;99.90;;;;;;4939996;28;94554;-28
2023/03/01 03:17:20;;;;;;;23.45;16.02;;;-1.60;99.90;;;;;;4939767;28;93638;-27
2023/03/01 03:19:45;;;;;;;26.75;15.48;;;-1.60;99.90;;;;;;4939382;28;93160;-29
2023/03/01 03:22:12;;;;;;;19.17;14.18;;;-1.60;99.90;;;;;;4939286;28;94600;-30
2023/03/01 03:24:38;;;;;;;23.52;15.48;;;-1.60;99.90;;;;;;4938942;28;94835;-31
2023/03/01 03:27:04;;;;;;;22.83;13.68;;;-1.60;99.90;;;;;;4939801;28;93220;-30
2023/03/01 03:29:30;;;;;;;23.17;15.68;;;-1.60;99.90;;;;;;4939769;28;94313;-28
2023/03/01 03:31:56;;;;;;;20.40;14.73;;;-1.70;99.90;;;;;;4938721;28;95031;-28
2023/03/01 03:34:21;;;;;;;20.48;16.52;;;-1.70;99.90;;;;;;4939522;28;93578;-31
2023/03/01 03:36:47;;;;;;;24.08;15.25;;;-1.70;99.90;;;;;;4939637;28;95047;-30
2023/03/01 03:39:13;;;;;;;25.33;15.45;;;-1.70;99.90;;;;;;4939247;28;93183;-31
2023/03/01 03:41:38;;;;;;;22.88;14.80;;;-1.70;99.90;;;;;;4938504;28;95656;-29
2023/03/01 03:44:04;;;;;;;25.05;14.88;;;-1.70;99.90;;;;;;4938620;28;95510;-31
2023/03/01 03:46:30;;;;;;;21.67;15.63;;;-1.70;99.90;;;;;;4939382;28;92329;-29
2023/03/01 03:48:55;;;;;;;25.00;15.45;;;-1.70;99.90;;;;;;4938949;28;93418;-32
2023/03/01 03:51:22;;;;;;;25.13;16.52;;;-1.70;99.90;;;;;;4939391;28;95552;-29
2023/03/01 03:53:48;;;;;;;29.42;17.02;;;-1.70;99.90;;;;;;4938919;28;95321;-32
2023/03/01 03:56:14;;;;;;;21.70;14.13;;;-1.70;99.90;;;;;;4938728;28;93268;-29
2023/03/01 03:58:40;;;;;;;23.48;15.90;;;-1.70;99.90;;;;;;4939916;28;92548;-31
2023/03/01 04:01:06;;;;;;;25.38;16.13;;;-1.80;99.90;;;;;;4938421;28;95023;-30
2023/03/01 04:03:34;;;;;;;23.27;17.02;;;-1.80;99.90;;;;;;4938971;28;94561;-30
2023/03/01 04:06:01;;;;;;;25.88;16.42;;;-1.80;99.90;;;;;;4937653;28;93543;-32
2023/03/01 04:08:28;;;;;;;17.65;14.40;;;-1.80;99.90;;;;;;4938419;28;93637;-29
2023/03/01 04:10:59;;;;;;;27.75;17.58;;;-1.80;99.90;;;;;;4938420;28;94846;-29
2023/03/01 04:13:25;;;;;;;24.50;17.52;;;-1.70;99.90;;;;;;4938054;28;95204;-32
2023/03/01 04:15:54;;;;;;;28.42;15.02;;;-1.80;99.90;;;;;;4939016;28;93576;-29
2023/03/01 04:18:22;;;;;;;35.47;16.63;;;-1.70;99.90;;;;;;4937895;28;93279;-30
2023/03/01 04:20:48;;;;;;;26.10;17.33;;;-1.80;99.90;;;;;;4938037;28;94635;-31
2023/03/01 04:23:19;;;;;;;26.13;17.02;;;-1.80;99.90;;;;;;4939053;28;93314;-29
2023/03/01 04:25:54;;;;;;;26.63;17.85;;;-1.70;99.90;;;;;;4939109;28;92799;-28
2023/03/01 04:28:40;;;;;;;24.90;15.32;;;-1.80;99.90;;;;;;4938233;28;93424;-28
2023/03/01 04:31:20;;;;;;;21.80;16.08;;;-1.70;99.90;;;;;;4938089;28;96225;-28
2023/03/01 04:33:51;;;;;;;34.70;17.83;;;-1.70;99.90;;;;;;4938646;28;95172;-29
2023/03/01 04:36:18;;;;;;;30.10;18.08;;;-1.70;99.90;;;;;;4938336;28;92188;-28
2023/03/01 04:38:47;;;;;;;28.42;17.08;;;-1.70;99.90;;;;;;4938703;28;94783;-32
2023/03/01 04:41:13;;;;;;;32.45;18.40;;;-1.70;99.90;;;;;;4938379;28;94546;-28
2023/03/01 04:43:39;;;;;;;21.35;15.77;;;-1.80;99.90;;;;;;4937958;28;94489;-30
2023/03/01 04:46:08;;;;;;;23.30;15.70;;;-1.80;99.90;;;;;;4920406;28;93225;-33
2023/03/01 04:48:35;;;;;;;24.38;14.05;;;-1.80;99.90;;;;;;4938225;28;92848;-28
2023/03/01 04:51:02;;;;;;;22.30;14.75;;;-1.80;99.90;;;;;;4938472;28;94489;-28
2023/03/01 04:53:28;;;;;;;23.48;16.25;;;-1.90;99.90;;;;;;4937838;28;94560;-32
2023/03/01 04:55:55;;;;;;;23.08;15.73;;;-2.00;99.90;;;;;;4937388;28;93724;-29
2023/03/01 04:58:23;;;;;;;23.35;15.40;;;-2.10;99.90;;;;;;4920344;28;92856;-30
2023/03/01 05:00:49;;;;;;;23.92;13.50;;;-2.10;99.90;;;;;;4938232;28;94525;-31
2023/03/01 05:03:17;;;;;;;18.60;13.32;;;-2.10;99.90;;;;;;4937942;28;94797;-29
2023/03/01 05:05:44;;;;;;;;;;;-2.10;99.90;;;;;;4938005;28;94244;-30
2023/03/01 05:08:17;;;;;;;21.38;14.05;;;-2.20;99.90;;;;;;4940023;28;93867;-28
2023/03/01 05:10:45;;;;;;;24.92;14.55;;;-2.20;99.90;;;;;;4919782;28;94220;-33
2023/03/01 05:13:13;;;;;;;24.45;14.95;;;-2.20;99.90;;;;;;4938003;28;94373;-30
2023/03/01 05:15:38;;;;;;;22.50;14.82;;;-2.20;99.90;;;;;;4938028;28;93078;-29
2023/03/01 05:18:11;;;;;;;21.73;13.52;;;-2.30;99.90;;;;;;4936725;28;94451;-30
2023/03/01 05:20:37;;;;;;;25.52;17.02;;;-2.30;99.90;;;;;;4936921;28;95794;-31
2023/03/01 05:23:05;;;;;;;27.15;15.18;;;-2.30;99.90;;;;;;4936666;28;95821;-30
2023/03/01 05:25:32;;;;;;;22.67;15.07;;;-2.40;99.90;;;;;;4937824;28;92671;-28
2023/03/01 05:28:05;;;;;;;19.40;14.02;;;-2.40;99.90;;;;;;4937100;28;93026;-30
2023/03/01 05:30:32;;;;;;;18.67;14.07;;;-2.40;99.90;;;;;;4936188;28;94834;-27
2023/03/01 05:32:58;;;;;;;24.83;13.07;;;-2.40;99.90;;;;;;4937071;28;94213;-28
2023/03/01 05:35:24;;;;;;;21.33;14.20;;;-2.50;99.90;;;;;;4937183;28;94517;-29
2023/03/01 05:37:51;;;;;;;16.70;13.27;;;-2.50;99.90;;;;;;4937320;28;93177;-30
2023/03/01 05:40:19;;;;;;;23.45;14.70;;;-2.50;99.90;;;;;;4920208;28;94249;-30
2023/03/01 05:42:51;;;;;;;21.67;14.32;;;-2.60;99.90;;;;;;4937638;28;95316;-28
2023/03/01 05:45:18;;;;;;;24.23;15.23;;;-2.60;99.90;;;;;;4937090;28;94668;-32
2023/03/01 05:47:45;;;;;;;21.48;14.23;;;-2.60;99.90;;;;;;4937630;28;94877;-28
2023/03/01 05:50:18;;;;;;;26.02;14.10;;;-2.60;99.90;;;;;;4936716;28;94678;-28
2023/03/01 05:52:46;;;;;;;29.35;15.35;;;-2.70;99.90;;;;;;4937692;28;95277;-30
2023/03/01 05:55:11;;;;;;;21.40;13.85;;;-2.70;99.90;;;;;;4937416;28;94808;-30
2023/03/01 05:57:37;;;;;;;25.95;17.05;;;-2.60;99.90;;;;;;4936718;28;92949;-28
2023/03/01 06:00:03;;;;;;;23.08;13.55;;;-2.60;99.90;;;;;;4918982;28;94341;-29
2023/03/01 06:02:29;;;;;;;22.77;14.52;;;-2.60;99.90;;;;;;4936963;28;95599;-30
2023/03/01 06:04:55;;;;;;;23.30;14.73;;;-2.60;99.90;;;;;;4937329;28;93512;-31
2023/03/01 06:07:21;;;;;;;21.80;13.90;;;-2.60;99.90;;;;;;4936259;28;94060;-29
2023/03/01 06:09:46;;;;;;;24.58;13.40;;;-2.60;99.90;;;;;;4936121;28;95455;-31
2023/03/01 06:12:12;;;;;;;28.00;15.85;;;-2.60;99.90;;;;;;4936635;28;94513;-31
2023/03/01 06:14:37;;;;;;;25.08;13.52;;;-2.60;99.90;;;;;;4918991;28;94428;-29
2023/03/01 06:17:03;;;;;;;21.67;14.10;;;-2.50;99.90;;;;;;4936221;28;93305;-32
2023/03/01 06:19:29;;;;;;;19.20;14.50;;;-2.60;99.90;;;;;;4936679;28;93841;-32
2023/03/01 06:21:54;;;;;;;18.45;12.07;;;-2.60;99.90;;;;;;4936653;28;94540;-31
2023/03/01 06:24:20;;;;;;;20.75;15.35;;;-2.60;99.90;;;;;;4936978;28;94355;-31
2023/03/01 06:26:45;;;;;;;20.63;14.93;;;-2.60;99.90;;;;;;4936959;28;93354;-30
2023/03/01 06:29:11;;;;;;;23.27;14.85;;;-2.60;99.90;;;;;;4936614;28;95525;-28
2023/03/01 06:31:36;;;;;;;19.70;13.63;;;-2.70;99.90;;;;;;4935556;28;95652;-27
2023/03/01 06:34:02;;;;;;;24.35;15.05;;;-2.70;99.90;;;;;;4918398;28;95310;-31
2023/03/01 06:36:28;;;;;;;34.28;17.35;;;-2.70;99.90;;;;;;4918917;28;93490;-32
2023/03/01 06:38:53;;;;;;;22.65;14.57;;;-2.60;99.90;;;;;;4936396;28;94978;-30
2023/03/01 06:41:19;;;;;;;33.72;16.35;;;-2.70;99.90;;;;;;4935502;28;94539;-30
2023/03/01 06:43:45;;;;;;;22.00;14.25;;;-2.60;99.90;;;;;;4936121;28;93336;-31
2023/03/01 06:46:10;;;;;;;23.42;15.07;;;-2.60;99.90;;;;;;4936388;28;94813;-27
2023/03/01 06:48:36;;;;;;;28.17;17.70;;;-2.60;99.90;;;;;;4935690;28;94505;-31
2023/03/01 06:51:01;;;;;;;30.25;17.80;;;-2.60;99.90;;;;;;4936572;28;94124;-32
2023/03/01 06:53:28;;;;;;;21.35;15.88;;;-2.60;99.90;;;;;;4935534;28;92270;-33
2023/03/01 06:55:55;;;;;;;46.22;22.48;;;-2.60;99.90;;;;;;4935610;28;94093;-33
2023/03/01 06:58:21;;;;;;;34.47;17.08;;;-2.60;99.90;;;;;;4935322;28;94257;-31
2023/03/01 07:00:46;;;;;;;27.35;16.70;;;-2.60;99.90;;;;;;4902598;28;95507;-31
2023/03/01 07:03:12;;;;;;;33.20;17.27;;;-2.60;99.90;;;;;;4918370;28;94414;-32
2023/03/01 07:05:38;;;;;;;26.35;16.70;;;-2.60;99.90;;;;;;4935619;28;94074;-29
2023/03/01 07:08:03;;;;;;;27.80;16.77;;;-2.50;99.90;;;;;;4935816;28;94390;-30
2023/03/01 07:10:29;;;;;;;29.63;16.23;;;-2.50;99.90;;;;;;4936130;28;94678;-28
2023/03/01 07:12:58;;;;;;;31.63;16.35;;;-2.50;99.90;;;;;;4936473;28;93921;-32
2023/03/01 07:15:25;;;;;;;30.90;16.33;;;-2.50;99.90;;;;;;4935918;28;93778;-32
2023/03/01 07:17:51;;;;;;;35.03;17.23;;;-2.50;99.90;;;;;;4936458;28;95385;-32
2023/03/01 07:20:24;;;;;;;26.00;16.15;;;-2.40;99.90;;;;;;4917384;28;93888;-31
2023/03/01 07:22:51;;;;;;;24.45;15.50;;;-2.30;99.90;;;;;;4935334;28;95522;-33
2023/03/01 07:25:17;;;;;;;26.08;15.70;;;-2.30;99.90;;;;;;4936571;28;93633;-33
2023/03/01 07:27:43;;;;;;;28.48;18.50;;;-2.20;99.90;;;;;;4935517;28;94611;-28
2023/03/01 07:30:09;;;;;;;33.28;20.48;;;-2.10;99.90;;;;;;4936497;28;95031;-32
2023/03/01 07:32:35;;;;;;;33.00;21.40;;;-2.10;99.90;;;;;;4936227;28;92894;-32
2023/03/01 07:35:00;;;;;;;32.70;19.65;;;-2.00;99.90;;;;;;4934978;28;94924;-30
2023/03/01 07:37:26;;;;;;;29.75;22.63;;;-1.90;99.90;;;;;;4936268;28;94531;-28
2023/03/01 07:39:52;;;;;;;39.25;22.77;;;-1.80;99.90;;;;;;4935149;28;94373;-29
2023/03/01 07:42:17;;;;;;;45.85;25.13;;;-1.60;99.90;;;;;;4934167;28;93608;-31
2023/03/01 07:44:43;;;;;;;32.53;22.20;;;-1.50;99.90;;;;;;4933325;28;93227;-29
2023/03/01 07:47:08;;;;;;;40.00;27.10;;;-1.40;99.90;;;;;;4933272;28;96819;-32
2023/03/01 07:49:34;;;;;;;38.40;26.10;;;-1.30;99.90;;;;;;4934669;28;95598;-31
2023/03/01 07:52:00;;;;;;;39.17;25.75;;;-1.20;99.90;;;;;;4934227;28;94377;-31
2023/03/01 07:54:26;;;;;;;39.00;27.02;;;-1.10;99.90;;;;;;4937444;28;93216;-28
2023/03/01 07:56:52;;;;;;;37.45;26.27;;;-1.00;99.90;;;;;;4937919;28;95007;-29
2023/03/01 07:59:17;;;;;;;43.42;28.63;;;-0.90;99.90;;;;;;4938826;28;94586;-29
2023/03/01 08:01:43;;;;;;;39.67;26.88;;;-0.70;99.90;;;;;;4939246;28;93808;-30
2023/03/01 08:04:09;;;;;;;46.05;28.52;;;-0.50;99.90;;;;;;4939158;28;91392;-30
2023/03/01 08:06:36;;;;;;;42.30;27.95;;;-0.40;99.90;;;;;;4938632;28;94623;-29
2023/03/01 08:09:01;;;;;;;55.80;30.52;;;-0.30;99.90;;;;;;4938118;28;94604;-32
2023/03/01 08:11:28;;;;;;;43.28;25.90;;;-0.10;99.90;;;;;;4939053;28;93101;-28
2023/03/01 08:13:54;;;;;;;42.88;27.83;;;-0.10;99.90;;;;;;4938903;28;92218;-28
2023/03/01 08:16:20;;;;;;;43.75;30.33;;;0.10;99.90;;;;;;4938970;28;94909;-28
2023/03/01 08:18:45;;;;;;;46.35;30.80;;;0.20;99.90;;;;;;4939754;28;95028;-28
2023/03/01 08:21:16;;;;;;;47.97;31.25;;;0.20;99.90;;;;;;4938387;28;94516;-29
2023/03/01 08:23:43;;;;;;;41.70;26.63;;;0.30;99.90;;;;;;4938477;28;94359;-32
2023/03/01 08:26:15;;;;;;;40.17;28.95;;;0.40;99.90;;;;;;4920271;28;95048;-31
2023/03/01 08:28:42;;;;;;;40.28;26.25;;;0.60;99.90;;;;;;4939220;28;95381;-28
2023/03/01 08:31:36;;;;;;;51.03;29.33;;;0.70;99.90;;;;;;4938078;28;94762;-29
2023/03/01 08:34:04;;;;;;;35.92;27.17;;;0.90;99.90;;;;;;4936885;28;94228;-29
2023/03/01 08:36:32;;;;;;;44.97;27.52;;;1.00;99.90;;;;;;4938177;28;95764;-28
2023/03/01 08:38:59;;;;;;;39.80;27.75;;;1.00;99.90;;;;;;4937867;28;95530;-29
2023/03/01 08:41:25;;;;;;;34.42;25.10;;;1.10;99.90;;;;;;4938618;28;93358;-28
2023/03/01 08:43:52;;;;;;;31.95;21.55;;;1.30;99.90;;;;;;4938252;28;93490;-29
2023/03/01 08:46:18;;;;;;;27.88;20.90;;;1.50;99.90;;;;;;4938075;28;94571;-31
2023/03/01 08:48:44;;;;;;;30.17;18.95;;;1.60;99.90;;;;;;4937865;28;94421;-32
2023/03/01 08:51:15;;;;;;;23.60;18.38;;;1.80;99.90;;;;;;4938179;28;93790;-30
2023/03/01 08:53:41;;;;;;;27.70;19.75;;;1.90;99.90;;;;;;4938694;28;92356;-30
2023/03/01 08:56:08;;;;;;;20.33;14.48;;;2.10;99.90;;;;;;4937662;28;94793;-29
2023/03/01 08:58:34;;;;;;;26.00;20.00;;;2.20;99.90;;;;;;4937071;28;94725;-27
2023/03/01 09:01:00;;;;;;;28.38;18.95;;;2.30;99.90;;;;;;4938345;28;95260;-31
2023/03/01 09:03:26;;;;;;;25.00;19.83;;;2.50;99.90;;;;;;4937628;28;93497;-32
2023/03/01 09:05:52;;;;;;;27.27;19.60;;;2.60;99.90;;;;;;4936984;28;95926;-28
2023/03/01 09:08:19;;;;;;;29.52;20.52;;;2.70;99.90;;;;;;4938598;28;94527;-29
2023/03/01 09:10:44;;;;;;;23.63;19.75;;;2.80;99.90;;;;;;4937459;28;92953;-28
2023/03/01 09:13:10;;;;;;;23.80;17.52;;;2.90;99.90;;;;;;4938622;28;93588;-30
2023/03/01 09:15:39;;;;;;;26.95;15.82;;;3.10;99.90;;;;;;4937657;28;94515;-28
2023/03/01 09:18:05;;;;;;;27.02;16.83;;;3.30;99.90;;;;;;4937197;28;94619;-31
2023/03/01 09:20:31;;;;;;;18.33;13.10;;;3.30;99.90;;;;;;4937899;28;93322;-28
2023/03/01 09:22:57;;;;;;;26.35;15.50;;;3.40;99.90;;;;;;4919681;28;93243;-31
2023/03/01 09:25:23;;;;;;;16.65;12.75;;;3.50;99.90;;;;;;4936830;28;95171;-28
2023/03/01 09:27:53;;;;;;;19.52;13.73;;;3.60;99.90;;;;;;4937193;28;94596;-32
2023/03/01 09:30:19;;;;;;;14.20;12.38;;;3.70;99.90;;;;;;4937713;28;94920;-32
2023/03/01 09:32:45;;;;;;;16.08;13.15;;;3.90;99.90;;;;;;4937500;28;92822;-28
2023/03/01 09:35:11;;;;;;;17.23;13.13;;;3.90;99.90;;;;;;4937184;28;94855;-29
2023/03/01 09:37:37;;;;;;;19.92;15.48;;;4.00;99.90;;;;;;4937245;28;94693;-30
2023/03/01 09:40:06;;;;;;;17.70;13.23;;;4.20;99.90;;;;;;4937005;28;94534;-30
2023/03/01 09:42:45;;;;;;;16.52;14.00;;;4.30;99.90;;;;;;4937082;28;93976;-29
2023/03/01 09:45:20;;;;;;;;;;;4.40;99.90;;;;;;4937374;28;94533;-32
2023/03/01 09:47:46;;;;;;;17.90;12.18;;;4.40;99.90;;;;;;4939311;28;93760;-31
2023/03/01 09:50:17;;;;;;;13.70;11.23;;;4.40;99.90;;;;;;4936885;28;95950;-30
2023/03/01 09:52:54;;;;;;;13.18;10.10;;;4.60;99.90;;;;;;4938003;28;94274;-32
2023/03/01 09:55:33;;;;;;;11.50;7.70;;;4.60;99.90;;;;;;4937024;28;95067;-28
2023/03/01 09:58:15;;;;;;;;;;;4.80;99.90;;;;;;4938303;28;94728;-29
2023/03/01 10:00:47;;;;;;;12.90;8.63;;;4.80;99.90;;;;;;4940138;28;92542;-28
2023/03/01 10:03:32;;;;;;;11.90;9.80;;;4.90;99.90;;;;;;4937600;28;93603;-30
2023/03/01 10:06:13;;;;;;;13.20;10.35;;;5.00;99.90;;;;;;4978483;22;95072;-28
2023/03/01 10:09:00;;;;;;;12.80;10.35;;;5.10;99.90;;;;;;4956707;28;94481;-30
2023/03/01 10:11:32;;;;;;;11.98;9.45;;;5.20;99.90;;;;;;4957071;28;92664;-28
2023/03/01 10:14:23;;;;;;;12.93;9.43;;;5.30;99.90;;;;;;4956999;28;93194;-29
2023/03/01 10:17:02;;;;;;;10.23;9.02;;;5.30;99.90;;;;;;4955049;28;96191;-29
2023/03/01 10:19:33;;;;;;;11.20;8.63;;;5.40;99.90;;;;;;4956583;28;96041;-28
2023/03/01 10:22:21;;;;;;;11.48;9.23;;;5.40;99.90;;;;;;4957209;28;93584;-28
2023/03/01 10:24:49;;;;;;;13.13;8.73;;;5.50;99.90;;;;;;4958121;28;94486;-27
2023/03/01 10:27:25;;;;;;;14.93;9.73;;;5.50;99.90;;;;;;4956592;28;95018;-30
2023/03/01 10:30:16;;;;;;;21.83;9.95;;;5.70;99.90;;;;;;4956567;28;94451;-32
2023/03/01 10:32:42;;;;;;;14.95;10.45;;;5.60;99.90;;;;;;4956951;28;93043;-28
2023/03/01 10:35:19;;;;;;;9.75;8.65;;;5.70;99.90;;;;;;4956903;28;91377;-27
2023/03/01 10:38:03;;;;;;;13.45;7.72;;;5.70;99.90;;;;;;4958071;28;95011;-30
2023/03/01 10:40:29;;;;;;;8.45;7.00;;;5.70;99.90;;;;;;4956097;28;94084;-28
2023/03/01 10:42:59;;;;;;;10.35;8.07;;;5.90;99.90;;;;;;4956690;28;93114;-29
2023/03/01 10:45:34;;;;;;;10.75;7.65;;;6.00;99.90;;;;;;4956800;28;93534;-31
2023/03/01 10:48:26;;;;;;;14.77;10.70;;;6.00;99.90;;;;;;4956375;28;93396;-29
2023/03/01 10:51:06;;;;;;;12.68;10.23;;;5.90;99.90;;;;;;4938499;28;94594;-28
2023/03/01 10:53:42;;;;;;;15.07;9.55;;;5.90;99.90;;;;;;4956043;28;93131;-26
2023/03/01 10:56:10;;;;;;;13.10;11.75;;;5.90;99.90;;;;;;4956868;28;93370;-27
2023/03/01 10:58:38;;;;;;;10.55;8.40;;;5.90;99.90;;;;;;4955837;28;96197;-28
2023/03/01 11:01:14;;;;;;;12.10;8.65;;;6.10;99.90;;;;;;4957232;28;94582;-30
2023/03/01 11:03:40;;;;;;;9.80;8.57;;;6.10;99.90;;;;;;4957126;28;93097;-29
2023/03/01 11:06:12;;;;;;;9.40;6.55;;;6.20;99.90;;;;;;4955746;28;92341;-28
2023/03/01 11:08:40;;;;;;;10.55;8.15;;;6.00;99.90;;;;;;4955876;28;95517;-28
2023/03/01 11:11:06;;;;;;;;;;;5.90;99.90;;;;;;4957108;28;95122;-28
2023/03/01 11:13:31;;;;;;;8.38;6.03;;;6.00;99.90;;;;;;4958411;28;93250;-29
2023/03/01 11:16:02;;;;;;;10.38;7.45;;;6.10;99.90;;;;;;4956051;28;93933;-28
2023/03/01 11:18:30;;;;;;;10.07;7.45;;;6.10;96.30;;;;;;4938613;28;94888;-26
2023/03/01 11:20:58;;;;;;;11.77;8.60;;;6.30;99.90;;;;;;4955974;28;94787;-30
2023/03/01 11:23:27;;;;;;;11.80;7.35;;;6.20;99.90;;;;;;4957268;28;93289;-27
2023/03/01 11:26:07;;;;;;;8.32;7.10;;;6.30;99.90;;;;;;4956344;28;93672;-29
2023/03/01 11:28:37;;;;;;;10.02;8.02;;;6.30;99.90;;;;;;4957324;28;94322;-30
2023/03/01 11:31:08;;;;;;;9.40;7.18;;;6.30;99.90;;;;;;4959579;28;94445;-27
2023/03/01 11:33:40;;;;;;;12.45;7.82;;;6.40;99.90;;;;;;4960011;28;95510;-30
2023/03/01 11:36:31;;;;;;;8.95;7.78;;;6.50;99.90;;;;;;4959435;28;93410;-31
2023/03/01 11:39:01;;;;;;;11.15;9.35;;;6.40;99.90;;;;;;4959627;28;94462;-30
2023/03/01 11:41:31;;;;;;;9.73;8.77;;;6.40;99.90;;;;;;4959257;28;96296;-28
2023/03/01 11:44:12;;;;;;;11.77;8.15;;;6.50;99.90;;;;;;4960066;28;93374;-30
2023/03/01 11:47:06;;;;;;;11.35;7.20;;;6.50;99.90;;;;;;4959704;28;94721;-27
2023/03/01 11:49:56;;;;;;;10.05;6.60;;;6.70;99.90;;;;;;4959546;28;95102;-28
2023/03/01 11:52:40;;;;;;;9.30;8.32;;;6.60;99.90;;;;;;4959601;28;94585;-28
2023/03/01 11:55:22;;;;;;;14.10;8.07;;;6.60;99.90;;;;;;4958758;28;94292;-30
2023/03/01 11:58:27;;;;;;;10.15;9.00;;;6.50;99.90;;;;;;4959400;28;93365;-30
2023/03/01 12:01:30;;;;;;;9.45;7.95;;;6.60;99.90;;;;;;4958789;28;96286;-31
2023/03/01 12:04:21;;;;;;;9.57;7.15;;;6.60;99.90;;;;;;4959206;28;95297;-30
2023/03/01 12:07:01;;;;;;;10.55;6.70;;;6.80;99.90;;;;;;4959112;28;93337;-28
2023/03/01 12:09:27;;;;;;;11.43;7.60;;;6.90;99.90;;;;;;4958864;28;94407;-30
2023/03/01 12:12:20;;;;;;;9.23;7.93;;;6.90;99.90;;;;;;4959126;28;93749;-30
2023/03/01 12:14:59;;;;;;;9.80;6.35;;;7.00;99.90;;;;;;4958512;28;94571;-27
2023/03/01 12:17:40;;;;;;;9.10;5.90;;;6.90;99.90;;;;;;4958679;28;92245;-30
2023/03/01 12:20:09;;;;;;;11.07;8.27;;;7.00;99.90;;;;;;4958405;28;93923;-28
2023/03/01 12:22:44;;;;;;;10.63;9.52;;;7.10;99.90;;;;;;4958521;28;94705;-27
2023/03/01 12:25:21;;;;;;;11.80;8.07;;;7.00;91.70;;;;;;4959073;28;95115;-28
2023/03/01 12:27:54;;;;;;;11.87;8.30;;;7.10;99.90;;;;;;4954853;28;93212;-34
2023/03/01 12:30:37;;;;;;;11.25;7.88;;;7.20;93.60;;;;;;4940432;28;93176;-29
2023/03/01 12:33:13;;;;;;;11.93;8.70;;;7.20;99.90;;;;;;4958270;28;95275;-28
2023/03/01 12:36:03;;;;;;;7.75;6.32;;;7.10;99.90;;;;;;4958877;28;94758;-29
2023/03/01 12:38:41;;;;;;;13.90;8.23;;;7.30;99.90;;;;;;4958879;28;94723;-27
2023/03/01 12:41:28;;;;;;;13.00;8.38;;;7.10;99.90;;;;;;4954138;28;93971;-30
2023/03/01 12:44:02;;;;;;;10.15;8.20;;;7.20;99.90;;;;;;4955790;28;93997;-31
2023/03/01 12:46:52;;;;;;;11.23;8.02;;;7.20;99.90;;;;;;4957221;28;93905;-27